createdAt,value
2022-11-25T00:01:47.763Z,151.10
2022-11-25T00:04:11.486Z,164.47
2022-11-25T00:06:36.937Z,144.60
2022-11-25T00:09:02.245Z,143.60
2022-11-25T00:11:25.906Z,172.63
2022-11-25T00:13:50.410Z,146.77
2022-11-25T00:16:16.466Z,155.07
2022-11-25T00:18:41.931Z,137.43
2022-11-25T00:21:08.725Z,153.17
2022-11-25T00:23:33.482Z,153.33
2022-11-25T00:25:57.132Z,135.97
2022-11-25T00:28:20.771Z,158.67
2022-11-25T00:30:46.368Z,158.97
2022-11-25T00:33:10.105Z,161.00
2022-11-25T00:35:36.374Z,151.80
2022-11-25T00:37:59.961Z,134.53
2022-11-25T00:40:23.504Z,148.73
2022-11-25T00:43:04.486Z,136.40
2022-11-25T00:45:28.094Z,133.93
2022-11-25T00:47:51.647Z,150.63
2022-11-25T00:50:15.540Z,150.10
2022-11-25T00:52:40.463Z,155.97
2022-11-25T00:55:05.216Z,145.07
2022-11-25T00:57:28.753Z,158.80
2022-11-25T00:59:52.791Z,153.20
2022-11-25T01:02:19.881Z,146.53
2022-11-25T01:04:43.519Z,143.87
2022-11-25T01:07:07.870Z,136.20
2022-11-25T01:09:33.393Z,155.33
2022-11-25T01:11:56.964Z,155.10
2022-11-25T01:14:21.114Z,152.20
2022-11-25T01:16:44.824Z,144.70
2022-11-25T01:19:08.727Z,145.43
2022-11-25T01:21:34.806Z,166.67
2022-11-25T01:24:00.595Z,154.60
2022-11-25T01:26:26.748Z,167.77
2022-11-25T01:28:54.881Z,147.87
2022-11-25T01:31:21.510Z,152.80
2022-11-25T01:33:47.020Z,158.27
2022-11-25T01:36:15.625Z,138.97
2022-11-25T01:38:40.331Z,154.37
2022-11-25T01:41:05.473Z,146.90
2022-11-25T01:43:31.576Z,139.33
2022-11-25T01:45:56.334Z,153.57
2022-11-25T01:48:26.497Z,150.43
2022-11-25T01:50:51.161Z,136.37
2022-11-25T01:53:18.061Z,127.33
2022-11-25T01:55:46.712Z,132.37
2022-11-25T01:58:13.767Z,142.73
2022-11-25T02:00:40.000Z,141.07
2022-11-25T02:03:04.356Z,145.10
2022-11-25T02:05:37.837Z,153.47
2022-11-25T02:08:02.016Z,163.53
2022-11-25T02:10:31.265Z,135.50
2022-11-25T02:12:55.332Z,135.23
2022-11-25T02:15:19.234Z,138.90
2022-11-25T02:17:44.412Z,148.07
2022-11-25T02:20:11.181Z,133.57
2022-11-25T02:22:50.983Z,140.33
2022-11-25T02:25:19.242Z,127.17
2022-11-25T02:27:44.536Z,138.57
2022-11-25T02:30:09.945Z,132.37
2022-11-25T02:32:33.521Z,136.90
2022-11-25T02:34:57.326Z,131.87
2022-11-25T02:37:23.346Z,141.67
2022-11-25T02:39:49.395Z,144.53
2022-11-25T02:42:14.632Z,134.70
2022-11-25T02:44:38.373Z,125.97
2022-11-25T02:47:01.952Z,152.50
2022-11-25T02:49:25.685Z,150.27
2022-11-25T02:51:50.062Z,137.73
2022-11-25T02:54:16.084Z,135.43
2022-11-25T02:56:40.612Z,151.03
2022-11-25T02:59:07.228Z,147.07
2022-11-25T03:01:32.853Z,131.60
2022-11-25T03:03:56.555Z,136.73
2022-11-25T03:06:20.398Z,159.83
2022-11-25T03:08:45.240Z,169.77
2022-11-25T03:11:09.956Z,153.00
2022-11-25T03:13:35.190Z,139.97
2022-11-25T03:16:01.586Z,161.63
2022-11-25T03:18:25.484Z,144.77
2022-11-25T03:20:49.057Z,164.00
2022-11-25T03:23:12.990Z,133.27
2022-11-25T03:25:37.591Z,151.70
2022-11-25T03:28:01.274Z,135.43
2022-11-25T03:30:28.353Z,143.90
2022-11-25T03:32:56.458Z,134.43
2022-11-25T03:35:23.403Z,129.93
2022-11-25T03:37:47.399Z,145.50
2022-11-25T03:40:13.744Z,124.67
2022-11-25T03:42:37.446Z,133.23
2022-11-25T03:45:02.312Z,121.63
2022-11-25T03:47:26.042Z,150.23
2022-11-25T03:49:51.029Z,140.17
2022-11-25T03:52:14.889Z,129.37
2022-11-25T03:54:39.136Z,126.10
2022-11-25T03:57:23.123Z,134.83
2022-11-25T03:59:46.775Z,127.63
2022-11-25T04:02:11.119Z,133.00
2022-11-25T04:04:35.126Z,125.73
2022-11-25T04:07:00.359Z,127.80
2022-11-25T04:09:25.667Z,142.40
2022-11-25T04:12:08.050Z,132.93
2022-11-25T04:14:42.185Z,113.33
2022-11-25T04:17:06.547Z,131.57
2022-11-25T04:19:32.782Z,138.30
2022-11-25T04:21:59.577Z,137.90
2022-11-25T04:24:27.412Z,121.53
2022-11-25T04:26:51.386Z,132.00
2022-11-25T04:29:15.074Z,134.37
2022-11-25T04:31:39.501Z,131.93
2022-11-25T04:34:03.055Z,130.57
2022-11-25T04:36:26.956Z,130.97
2022-11-25T04:38:52.136Z,130.87
2022-11-25T04:41:19.940Z,141.43
2022-11-25T04:43:44.921Z,133.33
2022-11-25T04:46:14.952Z,114.50
2022-11-25T04:48:41.949Z,136.00
2022-11-25T04:51:06.192Z,138.50
2022-11-25T04:53:30.080Z,135.73
2022-11-25T04:55:53.622Z,137.77
2022-11-25T04:58:38.877Z,140.17
2022-11-25T05:01:02.151Z,129.70
2022-11-25T05:03:26.257Z,135.63
2022-11-25T05:05:49.858Z,132.50
2022-11-25T05:08:14.360Z,126.07
2022-11-25T05:10:38.289Z,120.77
2022-11-25T05:13:01.777Z,138.60
2022-11-25T05:15:28.356Z,135.17
2022-11-25T05:17:52.663Z,134.13
2022-11-25T05:20:28.982Z,129.37
2022-11-25T05:22:52.647Z,125.57
2022-11-25T05:25:21.924Z,122.37
2022-11-25T05:28:00.568Z,113.90
2022-11-25T05:30:24.740Z,117.60
2022-11-25T05:32:49.683Z,122.77
2022-11-25T05:35:14.508Z,124.27
2022-11-25T05:37:38.089Z,126.60
2022-11-25T05:40:02.807Z,128.67
2022-11-25T05:42:46.549Z,131.60
2022-11-25T05:45:11.503Z,117.30
2022-11-25T05:47:36.460Z,117.37
2022-11-25T05:50:02.685Z,109.00
2022-11-25T05:52:27.244Z,110.70
2022-11-25T05:54:57.480Z,112.60
2022-11-25T05:57:21.645Z,149.33
2022-11-25T05:59:51.789Z,123.00
2022-11-25T06:02:38.313Z,136.63
2022-11-25T06:05:04.634Z,124.53
2022-11-25T06:07:28.267Z,137.13
2022-11-25T06:09:52.108Z,133.27
2022-11-25T06:12:15.637Z,130.20
2022-11-25T06:14:44.911Z,142.70
2022-11-25T06:17:08.495Z,139.27
2022-11-25T06:19:40.648Z,142.87
2022-11-25T06:22:06.025Z,133.03
2022-11-25T06:24:30.292Z,126.83
2022-11-25T06:26:58.574Z,142.10
2022-11-25T06:29:22.113Z,119.03
2022-11-25T06:31:47.321Z,170.20
2022-11-25T06:34:41.992Z,126.10
2022-11-25T06:37:14.381Z,106.33
2022-11-25T06:39:37.991Z,117.43
2022-11-25T06:42:01.516Z,132.80
2022-11-25T06:44:25.090Z,124.20
2022-11-25T06:46:48.634Z,90.07
2022-11-25T06:49:12.228Z,117.53
2022-11-25T06:51:35.747Z,102.93
2022-11-25T06:54:00.713Z,164.37
2022-11-25T06:56:26.763Z,138.67
2022-11-25T06:58:51.368Z,106.33
2022-11-25T07:01:18.041Z,134.37
2022-11-25T07:03:42.123Z,120.53
2022-11-25T07:06:06.269Z,133.97
2022-11-25T07:08:33.907Z,123.33
2022-11-25T07:11:05.124Z,128.43
2022-11-25T07:13:28.719Z,99.37
2022-11-25T07:15:52.672Z,117.20
2022-11-25T07:18:16.274Z,87.33
2022-11-25T07:20:39.861Z,92.40
2022-11-25T07:23:03.496Z,114.77
2022-11-25T07:25:30.689Z,111.30
2022-11-25T07:27:55.955Z,129.47
2022-11-25T07:31:21.056Z,104.87
2022-11-25T07:33:03.578Z,121.23
2022-11-25T07:35:27.168Z,157.27
2022-11-25T07:37:50.838Z,124.17
2022-11-25T07:40:15.145Z,112.30
2022-11-25T07:42:38.733Z,119.70
2022-11-25T07:45:08.722Z,140.03
2022-11-25T07:47:41.667Z,134.27
2022-11-25T07:50:06.405Z,144.77
2022-11-25T07:52:29.911Z,145.57
2022-11-25T07:54:54.887Z,161.60
2022-11-25T07:57:18.369Z,151.67
2022-11-25T07:59:41.995Z,161.97
2022-11-25T08:02:07.125Z,149.73
2022-11-25T08:04:30.723Z,146.00
2022-11-25T08:06:55.022Z,178.33
2022-11-25T08:09:21.905Z,140.83
2022-11-25T08:11:45.514Z,157.87
2022-11-25T08:14:10.338Z,168.37
2022-11-25T08:16:34.449Z,169.77
2022-11-25T08:19:00.945Z,151.43
2022-11-25T08:21:25.188Z,171.43
2022-11-25T08:23:49.669Z,181.23
2022-11-25T08:26:16.443Z,171.97
2022-11-25T08:28:42.569Z,145.40
2022-11-25T08:31:08.537Z,133.17
2022-11-25T08:33:32.325Z,176.60
2022-11-25T08:35:57.459Z,131.33
2022-11-25T08:38:21.085Z,142.27
2022-11-25T08:40:46.837Z,140.20
2022-11-25T08:43:10.420Z,168.43
2022-11-25T08:45:35.058Z,135.73
2022-11-25T08:47:59.286Z,142.80
2022-11-25T08:50:24.565Z,122.27
2022-11-25T08:52:49.547Z,149.87
2022-11-25T08:55:13.287Z,146.97
2022-11-25T08:57:36.876Z,137.20
2022-11-25T09:00:00.402Z,125.33
2022-11-25T09:02:24.962Z,129.27
2022-11-25T09:04:48.559Z,141.00
2022-11-25T09:07:12.406Z,123.67
2022-11-25T09:09:37.622Z,146.50
2022-11-25T09:12:01.570Z,146.07
2022-11-25T09:14:25.226Z,133.37
2022-11-25T09:16:49.540Z,131.00
2022-11-25T09:19:13.081Z,131.80
2022-11-25T09:21:36.710Z,118.50
2022-11-25T09:24:01.019Z,97.27
2022-11-25T09:26:29.377Z,89.23
2022-11-25T09:28:53.100Z,80.47
2022-11-25T09:31:16.845Z,72.10
2022-11-25T09:33:40.457Z,69.72
2022-11-25T09:36:06.543Z,66.78
2022-11-25T09:38:31.022Z,68.82
2022-11-25T09:41:03.420Z,74.82
2022-11-25T09:43:59.247Z,68.30
2022-11-25T09:46:46.060Z,76.68
2022-11-25T09:49:25.036Z,91.38
2022-11-25T09:52:03.228Z,84.65
2022-11-25T09:54:31.855Z,86.72
2022-11-25T09:57:04.439Z,81.63
2022-11-25T09:59:36.653Z,88.68
2022-11-25T10:02:04.374Z,77.88
2022-11-25T10:04:33.520Z,75.43
2022-11-25T10:07:01.595Z,79.05
2022-11-25T10:09:28.229Z,81.47
2022-11-25T10:11:55.190Z,81.68
2022-11-25T10:14:32.455Z,74.80
2022-11-25T10:17:03.132Z,82.93
2022-11-25T10:19:44.891Z,86.55
2022-11-25T10:22:24.195Z,89.43
2022-11-25T10:24:48.032Z,80.70
2022-11-25T10:27:20.368Z,73.07
2022-11-25T10:29:53.744Z,71.13
2022-11-25T10:32:25.736Z,72.82
2022-11-25T10:34:53.716Z,74.30
2022-11-25T10:37:27.130Z,70.20
2022-11-25T10:39:50.731Z,67.72
2022-11-25T10:42:21.311Z,73.63
2022-11-25T10:44:46.251Z,79.18
2022-11-25T10:47:26.631Z,70.05
2022-11-25T10:50:13.186Z,68.00
2022-11-25T10:52:42.747Z,71.97
2022-11-25T10:55:15.619Z,69.10
2022-11-25T10:57:39.242Z,72.28
2022-11-25T11:00:09.574Z,68.18
2022-11-25T11:02:41.432Z,74.38
2022-11-25T11:05:20.623Z,65.65
2022-11-25T11:07:47.038Z,65.85
2022-11-25T11:10:23.402Z,69.38
2022-11-25T11:12:58.899Z,73.72
2022-11-25T11:15:26.423Z,64.93
2022-11-25T11:17:50.637Z,69.00
2022-11-25T11:20:24.384Z,69.88
2022-11-25T11:22:54.922Z,68.40
2022-11-25T11:25:32.675Z,67.65
2022-11-25T11:27:56.828Z,70.07
2022-11-25T11:30:25.079Z,64.03
2022-11-25T11:33:00.895Z,60.70
2022-11-25T11:35:40.372Z,59.85
2022-11-25T11:38:19.532Z,64.07
2022-11-25T11:40:50.451Z,67.80
2022-11-25T11:43:38.993Z,58.67
2022-11-25T11:46:28.027Z,61.13
2022-11-25T11:49:01.958Z,67.25
2022-11-25T11:51:35.759Z,62.75
2022-11-25T11:54:08.485Z,61.53
2022-11-25T11:56:39.833Z,63.83
2022-11-25T11:59:27.706Z,64.38
2022-11-25T12:02:08.180Z,60.53
2022-11-25T12:04:39.124Z,55.80
2022-11-25T12:07:10.507Z,68.82
2022-11-25T12:09:40.523Z,57.95
2022-11-25T12:12:08.319Z,72.50
2022-11-25T12:14:39.964Z,69.50
2022-11-25T12:17:16.069Z,70.43
2022-11-25T12:19:47.245Z,73.63
2022-11-25T12:22:20.822Z,68.45
2022-11-25T12:24:52.015Z,75.07
2022-11-25T12:27:20.356Z,68.80
2022-11-25T12:29:50.179Z,73.15
2022-11-25T12:32:48.063Z,72.82
2022-11-25T12:35:23.899Z,75.32
2022-11-25T12:37:57.932Z,68.53
2022-11-25T12:40:30.524Z,75.53
2022-11-25T12:42:57.734Z,70.35
2022-11-25T12:45:26.021Z,72.03
2022-11-25T12:47:51.513Z,73.97
2022-11-25T12:50:18.819Z,72.05
2022-11-25T12:52:53.115Z,70.65
2022-11-25T12:55:19.740Z,66.60
2022-11-25T12:58:10.291Z,69.07
2022-11-25T13:01:08.922Z,64.60
2022-11-25T13:04:24.814Z,64.32
2022-11-25T13:07:27.560Z,64.60
2022-11-25T13:10:41.492Z,58.70
2022-11-25T13:13:38.950Z,60.08
2022-11-25T13:16:05.685Z,55.15
2022-11-25T13:18:33.384Z,66.47
2022-11-25T13:21:07.091Z,60.08
2022-11-25T13:23:49.459Z,59.00
2022-11-25T13:26:51.481Z,58.88
2022-11-25T13:30:04.242Z,65.63
2022-11-25T13:32:42.162Z,62.03
2022-11-25T13:35:37.841Z,64.38
2022-11-25T13:38:03.094Z,54.97
2022-11-25T13:40:38.418Z,71.63
2022-11-25T13:43:02.142Z,64.25
2022-11-25T13:45:30.936Z,108.53
2022-11-25T13:47:55.916Z,63.67
2022-11-25T13:50:36.749Z,64.90
2022-11-25T13:53:23.019Z,79.15
2022-11-25T13:55:50.165Z,62.85
2022-11-25T13:58:24.533Z,62.42
2022-11-25T14:01:27.991Z,65.43
2022-11-25T14:04:01.138Z,67.28
2022-11-25T14:07:07.179Z,66.72
2022-11-25T14:10:01.505Z,63.60
2022-11-25T14:12:44.960Z,66.30
2022-11-25T14:15:41.595Z,67.70
2022-11-25T14:21:54.849Z,67.93
2022-11-25T14:24:31.102Z,64.13
2022-11-25T14:26:59.003Z,67.13
2022-11-25T14:29:28.214Z,58.63
2022-11-25T14:31:57.199Z,74.88
2022-11-25T14:34:28.439Z,69.53
2022-11-25T14:36:56.464Z,68.72
2022-11-25T14:39:26.058Z,68.70
2022-11-25T14:42:00.154Z,69.82
2022-11-25T14:44:28.109Z,65.57
2022-11-25T14:46:55.921Z,77.35
2022-11-25T14:49:44.147Z,73.72
2022-11-25T14:52:03.085Z,78.10
2022-11-25T14:54:26.640Z,78.53
2022-11-25T14:56:50.488Z,72.07
2022-11-25T14:59:15.639Z,70.65
2022-11-25T15:01:41.385Z,76.68
2022-11-25T15:04:08.306Z,70.13
2022-11-25T15:06:36.674Z,74.93
2022-11-25T15:09:00.777Z,80.13
2022-11-25T15:11:28.421Z,77.68
2022-11-25T15:13:57.172Z,77.87
2022-11-25T15:16:26.774Z,76.28
2022-11-25T15:18:54.272Z,80.65
2022-11-25T15:21:22.425Z,84.53
2022-11-25T15:23:45.998Z,77.95
2022-11-25T15:26:19.766Z,81.35
2022-11-25T15:28:43.384Z,77.53
2022-11-25T15:31:12.744Z,85.95
2022-11-25T15:33:38.461Z,87.85
2022-11-25T15:36:02.067Z,83.63
2022-11-25T15:38:44.093Z,86.25
2022-11-25T15:41:17.067Z,79.93
2022-11-25T15:43:46.351Z,86.75
2022-11-25T15:46:10.392Z,75.30
2022-11-25T15:48:41.284Z,76.13
2022-11-25T15:51:12.101Z,77.00
2022-11-25T15:53:39.307Z,74.78
2022-11-25T15:56:03.499Z,69.95
2022-11-25T15:58:27.676Z,71.32
2022-11-25T16:01:07.059Z,72.65
2022-11-25T16:03:32.679Z,80.85
2022-11-25T16:05:58.236Z,77.82
2022-11-25T16:08:36.186Z,77.57
2022-11-25T16:11:11.125Z,77.97
2022-11-25T16:13:37.153Z,84.28
2022-11-25T16:16:16.543Z,75.72
2022-11-25T16:18:44.453Z,78.03
2022-11-25T16:21:13.031Z,82.95
2022-11-25T16:23:39.852Z,74.47
2022-11-25T16:26:06.772Z,75.43
2022-11-25T16:28:30.897Z,70.38
2022-11-25T16:30:59.252Z,75.35
2022-11-25T16:33:23.030Z,72.05
2022-11-25T16:35:46.571Z,74.13
2022-11-25T16:38:12.392Z,76.20
2022-11-25T16:40:38.428Z,73.35
2022-11-25T16:43:02.524Z,78.28
2022-11-25T16:45:28.851Z,82.53
2022-11-25T16:47:52.626Z,74.15
2022-11-25T16:50:17.252Z,76.90
2022-11-25T16:52:40.941Z,73.68
2022-11-25T16:55:07.331Z,80.28
2022-11-25T16:57:30.915Z,79.70
2022-11-25T16:59:58.734Z,77.68
2022-11-25T17:02:23.461Z,80.88
2022-11-25T17:04:48.016Z,79.13
2022-11-25T17:07:32.119Z,80.65
2022-11-25T17:09:56.713Z,79.88
2022-11-25T17:12:29.183Z,79.28
2022-11-25T17:17:24.942Z,89.80
2022-11-25T17:19:48.660Z,91.00
2022-11-25T17:24:43.639Z,84.65
2022-11-25T17:27:07.465Z,78.05
2022-11-25T17:29:38.257Z,84.60
2022-11-25T17:32:02.554Z,91.35
2022-11-25T17:34:26.093Z,93.13
2022-11-25T17:36:50.011Z,100.28
2022-11-25T17:39:14.616Z,100.03
2022-11-25T17:41:43.724Z,110.82
2022-11-25T17:44:07.341Z,124.93
2022-11-25T17:46:32.259Z,117.53
2022-11-25T17:48:55.776Z,116.13
2022-11-25T17:51:19.306Z,113.32
2022-11-25T17:53:43.177Z,115.75
2022-11-25T17:56:28.712Z,103.93
2022-11-25T17:58:53.551Z,103.97
2022-11-25T18:01:17.124Z,117.07
2022-11-25T18:03:42.208Z,109.47
2022-11-25T18:06:06.652Z,109.05
2022-11-25T18:08:30.456Z,114.78
2022-11-25T18:10:54.038Z,119.18
2022-11-25T18:13:17.989Z,124.30
2022-11-25T18:15:41.933Z,122.65
2022-11-25T18:18:21.247Z,130.90
2022-11-25T18:20:46.191Z,114.35
2022-11-25T18:23:10.885Z,128.00
2022-11-25T18:25:35.796Z,124.20
2022-11-25T18:28:00.158Z,121.40
2022-11-25T18:30:27.959Z,146.93
2022-11-25T18:32:51.644Z,111.38
2022-11-25T18:35:21.794Z,130.15
2022-11-25T18:37:47.106Z,124.90
2022-11-25T18:40:11.965Z,130.25
2022-11-25T18:42:35.608Z,134.20
2022-11-25T18:44:59.504Z,127.68
2022-11-25T18:47:23.230Z,115.95
2022-11-25T18:49:50.988Z,117.03
2022-11-25T18:52:17.642Z,131.95
2022-11-25T18:54:42.529Z,143.13
2022-11-25T18:57:06.976Z,139.18
2022-11-25T18:59:35.635Z,152.07
2022-11-25T19:01:59.304Z,139.73
2022-11-25T19:04:22.987Z,135.60
2022-11-25T19:06:46.620Z,136.68
2022-11-25T19:09:10.145Z,143.13
2022-11-25T19:11:39.720Z,156.68
2022-11-25T19:14:06.161Z,164.00
2022-11-25T19:16:30.182Z,142.25
2022-11-25T19:18:54.270Z,156.60
2022-11-25T19:21:19.910Z,144.10
2022-11-25T19:23:43.780Z,156.80
2022-11-25T19:26:15.925Z,139.70
2022-11-25T19:28:41.267Z,136.00
2022-11-25T19:31:05.596Z,147.30
2022-11-25T19:33:34.624Z,177.57
2022-11-25T19:35:58.500Z,143.05
2022-11-25T19:38:26.011Z,156.35
2022-11-25T19:40:50.206Z,151.68
2022-11-25T19:43:14.169Z,156.75
2022-11-25T19:45:39.551Z,180.38
2022-11-25T19:48:09.072Z,196.40
2022-11-25T19:50:35.347Z,226.57
2022-11-25T19:52:58.931Z,223.05
2022-11-25T19:55:24.814Z,171.65
2022-11-25T19:57:49.129Z,181.50
2022-11-25T20:00:15.549Z,185.27
2022-11-25T20:02:40.909Z,170.15
2022-11-25T20:05:07.940Z,171.05
2022-11-25T20:07:32.215Z,138.85
2022-11-25T20:09:56.848Z,138.40
2022-11-25T20:12:24.662Z,162.75
2022-11-25T20:14:49.084Z,138.05
2022-11-25T20:17:19.069Z,140.32
2022-11-25T20:19:43.995Z,133.55
2022-11-25T20:22:07.720Z,139.60
2022-11-25T20:24:31.878Z,160.57
2022-11-25T20:26:55.467Z,147.27
2022-11-25T20:29:24.694Z,157.07
2022-11-25T20:31:52.662Z,144.02
2022-11-25T20:34:16.584Z,137.70
2022-11-25T20:36:44.352Z,151.70
2022-11-25T20:39:08.315Z,141.70
2022-11-25T20:41:33.264Z,144.82
2022-11-25T20:43:58.132Z,147.88
2022-11-25T20:46:24.004Z,133.77
2022-11-25T20:48:47.951Z,160.85
2022-11-25T20:51:20.505Z,167.45
2022-11-25T20:53:49.066Z,155.00
2022-11-25T20:56:17.804Z,171.80
2022-11-25T20:58:41.527Z,176.35
2022-11-25T21:01:05.130Z,165.15
2022-11-25T21:03:28.998Z,140.73
2022-11-25T21:05:53.537Z,179.30
2022-11-25T21:08:23.094Z,156.82
2022-11-25T21:10:48.510Z,154.07
2022-11-25T21:13:19.707Z,167.07
2022-11-25T21:15:43.599Z,158.82
2022-11-25T21:18:07.293Z,152.30
2022-11-25T21:20:30.948Z,145.55
2022-11-25T21:22:58.475Z,152.63
2022-11-25T21:25:24.002Z,144.65
2022-11-25T21:27:51.091Z,148.02
2022-11-25T21:30:20.580Z,134.05
2022-11-25T21:32:44.218Z,132.32
2022-11-25T21:35:10.355Z,122.75
2022-11-25T21:37:36.809Z,135.35
2022-11-25T21:40:00.726Z,189.63
2022-11-25T21:42:24.335Z,135.38
2022-11-25T21:44:51.075Z,129.45
2022-11-25T21:47:15.964Z,116.75
2022-11-25T21:49:39.573Z,92.90
2022-11-25T21:52:03.808Z,91.80
2022-11-25T21:54:27.328Z,95.28
2022-11-25T21:56:52.210Z,101.43
2022-11-25T21:59:20.252Z,94.00
2022-11-25T22:01:46.066Z,107.88
2022-11-25T22:04:15.054Z,102.88
2022-11-25T22:06:38.567Z,147.15
2022-11-25T22:09:02.116Z,86.55
2022-11-25T22:11:32.842Z,90.05
2022-11-25T22:13:56.585Z,94.90
2022-11-25T22:16:27.677Z,99.95
2022-11-25T22:18:52.763Z,96.60
2022-11-25T22:21:16.771Z,94.63
2022-11-25T22:23:40.547Z,88.40
2022-11-25T22:26:05.929Z,89.95
2022-11-25T22:28:31.310Z,96.40
2022-11-25T22:30:57.571Z,86.35
2022-11-25T22:33:31.384Z,89.85
2022-11-25T22:35:56.345Z,84.03
2022-11-25T22:38:20.377Z,86.78
2022-11-25T22:40:46.511Z,82.22
2022-11-25T22:43:15.649Z,94.72
2022-11-25T22:45:40.025Z,90.50
2022-11-25T22:48:07.898Z,98.72
2022-11-25T22:50:33.901Z,105.75
2022-11-25T22:53:00.140Z,102.55
2022-11-25T22:55:26.690Z,76.57
2022-11-25T22:57:52.488Z,94.13
2022-11-25T23:00:21.801Z,105.85
2022-11-25T23:02:45.606Z,114.55
2022-11-25T23:05:17.593Z,121.35
2022-11-25T23:07:41.227Z,115.93
2022-11-25T23:10:15.228Z,73.97
2022-11-25T23:12:38.839Z,76.25
2022-11-25T23:15:02.337Z,71.13
2022-11-25T23:17:27.142Z,70.90
2022-11-25T23:19:52.078Z,93.40
2022-11-25T23:22:15.698Z,70.60
2022-11-25T23:24:41.221Z,78.65
2022-11-25T23:27:06.359Z,65.22
2022-11-25T23:29:29.965Z,73.32
2022-11-25T23:31:53.650Z,86.00
2022-11-25T23:34:17.365Z,86.78
2022-11-25T23:36:46.240Z,111.43
2022-11-25T23:39:20.670Z,101.05
2022-11-25T23:41:44.263Z,129.85
2022-11-25T23:44:16.814Z,94.18
2022-11-25T23:46:42.374Z,105.07
2022-11-25T23:49:10.937Z,119.30
2022-11-25T23:51:35.622Z,134.55
2022-11-25T23:54:00.283Z,127.78
2022-11-25T23:56:24.496Z,104.45
2022-11-25T23:58:49.512Z,101.90
